Time;durP1;ratioP1;P1;durP2;ratioP2;P2;SDS_P1;SDS_P2;PMS_P1;PMS_P2;Temp;Humidity;BMP_temperature;BMP_pressure;BME280_temperature;BME280_humidity;BME280_pressure;Samples;Min_cycle;Max_cycle;Signal;HPM_P1;HPM_P2
2022/07/12 00:00:15;;;;;;;2.30;2.17;;;;;;;14.25;100.00;97638.34;5038889;28;20214;-62
2022/07/12 00:02:43;;;;;;;2.23;2.13;;;;;;;14.24;100.00;97637.53;5038223;28;20201;-60
2022/07/12 00:05:12;;;;;;;1.47;1.47;;;;;;;14.25;100.00;97641.03;5039990;28;20798;-62
2022/07/12 00:07:40;;;;;;;2.03;1.80;;;;;;;14.25;100.00;97641.03;5020828;28;20638;-58
2022/07/12 00:10:11;;;;;;;1.70;1.60;;;;;;;14.24;100.00;97642.03;5037992;28;20202;-64
2022/07/12 00:12:40;;;;;;;1.23;1.23;;;;;;;14.25;100.00;97638.34;5007809;28;21610;-59
2022/07/12 00:15:10;;;;;;;2.50;1.40;;;;;;;14.18;100.00;97640.97;5037585;28;20210;-61
2022/07/12 00:17:39;;;;;;;3.10;1.37;;;;;;;14.13;100.00;97643.41;5033720;28;20304;-62
2022/07/12 00:20:08;;;;;;;1.27;1.27;;;;;;;14.07;100.00;97641.53;5037809;28;21790;-61
2022/07/12 00:22:37;;;;;;;1.33;1.20;;;;;;;14.03;100.00;97641.91;5022726;28;20879;-64
2022/07/12 00:25:06;;;;;;;1.73;0.80;;;;;;;13.95;100.00;97635.91;5036099;28;20227;-64
2022/07/12 00:27:36;;;;;;;0.83;0.83;;;;;;;13.84;100.00;97639.94;4998967;28;20210;-64
2022/07/12 00:30:05;;;;;;;1.10;1.10;;;;;;;13.73;100.00;97649.25;5040120;28;20855;-60
2022/07/12 00:32:34;;;;;;;1.03;1.03;;;;;;;13.65;100.00;97652.06;5039698;28;20224;-62
2022/07/12 00:35:02;;;;;;;0.93;0.93;;;;;;;13.53;100.00;97646.44;5036245;28;20206;-59
2022/07/12 00:37:31;;;;;;;1.03;1.03;;;;;;;13.41;100.00;97652.25;5018705;28;20415;-62
2022/07/12 00:39:59;;;;;;;1.70;1.17;;;;;;;13.32;100.00;97645.41;5037167;28;20244;-62
2022/07/12 00:42:28;;;;;;;1.63;1.63;;;;;;;13.17;100.00;97640.94;4996591;28;20815;-60
2022/07/12 00:44:58;;;;;;;1.33;1.33;;;;;;;13.10;100.00;97639.25;5041534;28;20207;-64
2022/07/12 00:47:37;;;;;;;1.43;1.40;;;;;;;13.01;100.00;97644.69;5033314;28;20879;-62
2022/07/12 00:50:07;;;;;;;1.23;1.23;;;;;;;12.97;100.00;97642.59;5014764;28;20209;-61
2022/07/12 00:52:37;;;;;;;1.10;1.10;;;;;;;12.91;100.00;97643.34;5013613;28;20223;-60
2022/07/12 00:55:06;;;;;;;1.57;1.50;;;;;;;12.92;100.00;97645.00;5038752;28;20235;-63
2022/07/12 00:57:34;;;;;;;2.17;1.70;;;;;;;12.97;100.00;97630.09;4996845;28;21206;-62
2022/07/12 01:00:06;;;;;;;1.80;1.70;;;;;;;13.01;100.00;97634.03;5044428;28;20292;-62
2022/07/12 01:02:35;;;;;;;1.40;1.40;;;;;;;13.06;100.00;97632.63;5034680;28;20191;-61
2022/07/12 01:05:05;;;;;;;2.63;1.57;;;;;;;13.09;100.00;97640.28;5040110;28;20417;-62
2022/07/12 01:07:35;;;;;;;2.13;1.70;;;;;;;13.10;100.00;97636.59;5043448;28;20839;-60
2022/07/12 01:10:04;;;;;;;1.57;1.37;;;;;;;13.14;100.00;97628.03;5023546;28;20208;-61
2022/07/12 01:12:32;;;;;;;1.97;1.87;;;;;;;13.25;100.00;97633.84;5047088;28;20234;-60
2022/07/12 01:15:00;;;;;;;1.47;1.47;;;;;;;13.29;100.00;97630.63;5003685;28;20298;-62
2022/07/12 01:17:30;;;;;;;1.10;1.10;;;;;;;13.35;100.00;97637.03;5041459;28;20955;-63
2022/07/12 01:20:00;;;;;;;1.63;1.53;;;;;;;13.40;100.00;97636.47;5040153;28;20304;-63
2022/07/12 01:22:31;;;;;;;1.40;1.30;;;;;;;13.42;100.00;97639.75;5044078;28;20338;-60
2022/07/12 01:25:02;;;;;;;1.43;1.33;;;;;;;13.46;100.00;97635.75;5023198;28;20213;-62
2022/07/12 01:27:30;;;;;;;1.50;1.40;;;;;;;13.44;100.00;97641.25;5038016;28;20975;-61
2022/07/12 01:29:58;;;;;;;1.30;1.30;;;;;;;13.47;100.00;97640.06;4999315;28;20326;-62
2022/07/12 01:32:29;;;;;;;1.10;1.10;;;;;;;13.41;100.00;97620.31;5044762;28;20561;-64
2022/07/12 01:34:59;;;;;;;2.27;1.30;;;;;;;13.51;100.00;97628.00;4990704;28;20265;-61
2022/07/12 01:37:30;;;;;;;1.20;1.20;;;;;;;13.55;100.00;97631.09;5041542;28;22353;-63
2022/07/12 01:39:59;;;;;;;0.90;0.90;;;;;;;13.58;100.00;97628.03;5018057;28;20227;-64
2022/07/12 01:42:30;;;;;;;1.17;1.17;;;;;;;13.59;100.00;97632.34;5043297;28;20701;-59
2022/07/12 01:44:59;;;;;;;1.40;1.27;;;;;;;13.58;100.00;97633.38;5038597;28;20623;-59
2022/07/12 01:47:33;;;;;;;3.70;1.87;;;;;;;13.50;100.00;97622.84;5041130;28;20267;-62
2022/07/12 01:50:05;;;;;;;1.30;1.30;;;;;;;13.54;100.00;97638.28;5009068;28;20785;-61
2022/07/12 01:52:34;;;;;;;1.43;1.40;;;;;;;13.50;100.00;97636.16;5041776;28;20218;-60
2022/07/12 01:55:02;;;;;;;1.30;1.30;;;;;;;13.46;100.00;97633.88;5022934;28;20339;-61
2022/07/12 01:57:32;;;;;;;1.20;1.20;;;;;;;13.44;100.00;97624.44;5043832;28;20238;-63
2022/07/12 02:00:01;;;;;;;1.80;1.47;;;;;;;13.44;100.00;97619.94;5035648;28;20930;-58
2022/07/12 02:02:31;;;;;;;1.43;1.43;;;;;;;13.48;100.00;97633.72;5042308;28;20203;-61
2022/07/12 02:05:00;;;;;;;2.00;1.30;;;;;;;13.49;100.00;97629.19;5000998;28;20302;-62
2022/07/12 02:07:28;;;;;;;1.70;1.60;;;;;;;13.51;100.00;97624.50;5043589;28;20372;-57
2022/07/12 02:09:57;;;;;;;1.50;1.47;;;;;;;13.49;100.00;97626.53;5040377;28;20224;-59
2022/07/12 02:12:25;;;;;;;1.70;1.60;;;;;;;13.44;100.00;97627.94;5017527;28;20863;-58
2022/07/12 02:14:55;;;;;;;2.20;1.50;;;;;;;13.35;100.00;97628.22;5036300;28;20203;-60
2022/07/12 02:17:23;;;;;;;1.77;1.70;;;;;;;13.32;100.00;97627.59;5040155;28;20660;-61
2022/07/12 02:19:51;;;;;;;1.40;1.40;;;;;;;13.31;100.00;97633.94;4997266;28;20282;-61
2022/07/12 02:22:19;;;;;;;2.33;1.87;;;;;;;13.29;100.00;97638.63;5049246;28;20195;-61
2022/07/12 02:24:48;;;;;;;1.50;1.50;;;;;;;13.31;100.00;97631.25;5038463;28;20265;-60
2022/07/12 02:27:16;;;;;;;1.47;1.47;;;;;;;13.30;100.00;97636.78;5025000;28;20705;-62
2022/07/12 02:29:44;;;;;;;3.43;1.70;;;;;;;13.28;100.00;97636.16;5040812;28;20314;-61
2022/07/12 02:32:14;;;;;;;1.43;1.43;;;;;;;13.25;100.00;97634.69;5040564;28;20207;-60
2022/07/12 02:34:42;;;;;;;1.50;1.30;;;;;;;13.22;100.00;97628.91;5038934;28;20261;-62
2022/07/12 02:37:11;;;;;;;1.60;1.60;;;;;;;13.16;100.00;97636.66;5001292;28;20208;-61
2022/07/12 02:39:39;;;;;;;1.50;1.50;;;;;;;13.17;100.00;97632.97;5038375;28;20312;-60
2022/07/12 02:42:07;;;;;;;1.43;1.33;;;;;;;13.17;100.00;97632.97;5018556;28;20297;-63
2022/07/12 02:44:35;;;;;;;1.33;1.33;;;;;;;13.13;100.00;97634.38;5041824;28;20930;-61
2022/07/12 02:47:04;;;;;;;1.40;1.40;;;;;;;13.06;100.00;97632.63;5039170;28;20940;-62
2022/07/12 02:49:33;;;;;;;1.40;1.40;;;;;;;13.03;100.00;97641.84;5036164;28;20219;-63
2022/07/12 02:52:01;;;;;;;1.40;1.40;;;;;;;13.00;100.00;97642.22;4999159;28;20207;-64
2022/07/12 02:54:29;;;;;;;1.03;1.03;;;;;;;12.93;100.00;97647.47;5038979;28;20199;-63
2022/07/12 02:56:58;;;;;;;1.10;1.10;;;;;;;12.86;100.00;97644.72;5020000;28;20295;-62
2022/07/12 02:59:26;;;;;;;1.37;1.30;;;;;;;12.81;100.00;97643.66;5036903;28;20218;-61
2022/07/12 03:01:54;;;;;;;1.20;1.20;;;;;;;12.76;100.00;97654.03;5036053;28;20715;-61
2022/07/12 03:04:22;;;;;;;1.40;1.40;;;;;;;12.71;100.00;97649.25;5036506;28;20244;-61
2022/07/12 03:06:52;;;;;;;1.90;1.37;;;;;;;12.67;100.00;97648.78;4997597;28;20215;-59
2022/07/12 03:09:20;;;;;;;1.23;1.23;;;;;;;12.64;100.00;97654.47;5033244;28;20300;-62
2022/07/12 03:11:48;;;;;;;1.60;1.50;;;;;;;12.61;100.00;97657.50;5042743;28;20195;-64
2022/07/12 03:14:17;;;;;;;1.40;1.40;;;;;;;12.58;100.00;97658.72;5015234;28;20227;-60
2022/07/12 03:16:45;;;;;;;1.43;1.43;;;;;;;12.54;100.00;97654.78;5038535;28;20673;-63
2022/07/12 03:19:13;;;;;;;1.40;1.40;;;;;;;12.51;100.00;97656.97;5038277;28;20734;-59
2022/07/12 03:21:42;;;;;;;1.70;1.60;;;;;;;12.48;100.00;97658.16;4993286;28;21010;-62
2022/07/12 03:24:11;;;;;;;1.60;1.60;;;;;;;12.44;100.00;97655.06;5036191;28;20203;-59
2022/07/12 03:26:40;;;;;;;1.30;1.30;;;;;;;12.43;100.00;97665.88;5032950;28;20763;-64
2022/07/12 03:29:09;;;;;;;1.50;1.40;;;;;;;12.40;100.00;97664.41;5023406;28;20227;-61
2022/07/12 03:31:37;;;;;;;2.10;2.00;;;;;;;12.39;100.00;97665.41;5033474;28;20336;-63
2022/07/12 03:34:06;;;;;;;1.60;1.60;;;;;;;12.40;100.00;97675.03;5037573;28;20211;-63
2022/07/12 03:36:34;;;;;;;1.93;1.83;;;;;;;12.42;100.00;97678.34;4989255;28;20755;-65
2022/07/12 03:39:02;;;;;;;2.80;1.47;;;;;;;12.42;100.00;97681.00;5040854;28;20220;-63
2022/07/12 03:41:32;;;;;;;2.13;2.03;;;;;;;12.42;100.00;97669.53;4976481;28;20212;-63
2022/07/12 03:44:00;;;;;;;3.13;1.93;;;;;;;12.45;100.00;97677.13;5025569;28;20312;-62
2022/07/12 03:46:29;;;;;;;1.80;1.70;;;;;;;12.48;100.00;97681.25;5040922;28;20570;-61
2022/07/12 03:48:57;;;;;;;1.63;1.60;;;;;;;12.49;100.00;97674.94;5022418;28;20835;-64
2022/07/12 03:51:25;;;;;;;1.87;1.63;;;;;;;12.48;100.00;97673.28;5038475;28;20199;-61
2022/07/12 03:53:53;;;;;;;2.10;1.70;;;;;;;12.51;100.00;97680.91;5033591;28;20211;-62
2022/07/12 03:59:05;;;;;;;1.60;1.60;;;;;;;12.58;100.00;97692.44;5039100;28;20226;-62
2022/07/12 04:01:33;;;;;;;1.60;1.53;;;;;;;12.61;100.00;97680.63;5009991;28;20262;-62
2022/07/12 04:04:02;;;;;;;1.40;1.40;;;;;;;12.57;100.00;97670.34;5014280;28;20463;-62
2022/07/12 04:06:31;;;;;;;1.87;1.80;;;;;;;12.66;100.00;97681.69;5037993;28;21435;-61
2022/07/12 04:08:59;;;;;;;2.40;1.90;;;;;;;12.67;100.00;97683.34;5038711;28;20273;-59
2022/07/12 04:11:27;;;;;;;1.97;1.87;;;;;;;12.68;100.00;97685.00;4994402;28;20215;-63
2022/07/12 04:13:55;;;;;;;2.03;1.93;;;;;;;12.70;100.00;97688.31;5024143;28;20207;-60
2022/07/12 04:16:25;;;;;;;1.60;1.60;;;;;;;12.75;100.00;97677.09;5017467;28;20204;-58
2022/07/12 04:18:53;;;;;;;2.17;2.07;;;;;;;12.83;100.00;97686.81;5023626;28;20788;-60
2022/07/12 04:21:22;;;;;;;1.60;1.60;;;;;;;12.92;100.00;97684.91;5036293;28;20207;-59
2022/07/12 04:23:50;;;;;;;1.70;1.70;;;;;;;12.99;100.00;97689.25;5037000;28;20703;-60
2022/07/12 04:26:18;;;;;;;2.13;2.03;;;;;;;13.12;100.00;97693.09;5001332;28;21906;-61
2022/07/12 04:28:46;;;;;;;1.70;1.70;;;;;;;13.19;100.00;97694.00;5041308;28;20218;-60
2022/07/12 04:31:14;;;;;;;2.00;1.90;;;;;;;13.27;100.00;97693.88;5038747;28;20743;-61
2022/07/12 04:33:44;;;;;;;1.70;1.60;;;;;;;13.18;100.00;97681.69;5016417;28;20233;-63
2022/07/12 04:36:12;;;;;;;2.10;2.00;;;;;;;13.09;100.00;97688.16;5027139;28;20436;-63
2022/07/12 04:38:41;;;;;;;2.17;2.07;;;;;;;13.00;100.00;97684.78;5026445;28;20343;-61
2022/07/12 04:41:09;;;;;;;2.50;2.20;;;;;;;12.92;100.00;97683.03;5036162;28;20269;-58
2022/07/12 04:43:38;;;;;;;2.17;2.07;;;;;;;12.95;100.00;97687.19;5010735;28;20242;-60
2022/07/12 04:46:07;;;;;;;2.10;2.00;;;;;;;12.88;100.00;97682.59;5038401;28;20273;-59
2022/07/12 04:48:35;;;;;;;2.30;2.13;;;;;;;13.09;100.00;97682.84;5019160;28;20223;-62
2022/07/12 04:51:05;;;;;;;2.20;2.10;;;;;;;13.30;100.00;97690.81;5024404;28;20234;-62
2022/07/12 04:53:33;;;;;;;2.13;1.93;;;;;;;13.53;100.00;97689.03;5042649;28;20212;-60
2022/07/12 04:56:01;;;;;;;4.17;1.93;;;;;;;13.76;100.00;97688.81;5036671;28;20899;-61
2022/07/12 04:58:29;;;;;;;2.00;1.90;;;;;;;13.94;100.00;97691.00;5010852;28;20333;-61
2022/07/12 05:00:58;;;;;;;2.47;2.37;;;;;;;14.08;100.00;97689.28;5040621;28;20245;-61
2022/07/12 05:03:26;;;;;;;1.90;1.80;;;;;;;13.85;100.00;97690.34;5042871;28;20286;-60
2022/07/12 05:05:55;;;;;;;2.20;2.10;;;;;;;13.92;100.00;97700.22;4994675;28;20295;-59
2022/07/12 05:08:25;;;;;;;1.80;1.80;;;;;;;14.08;100.00;97691.13;5043927;28;20223;-61
2022/07/12 05:10:53;;;;;;;2.40;2.20;;;;;;;14.23;100.00;97699.03;5041448;28;20223;-63
2022/07/12 05:13:21;;;;;;;1.70;1.70;;;;;;;14.42;100.00;97702.84;5012440;28;20683;-59
2022/07/12 05:15:49;;;;;;;2.10;2.00;;;;;;;14.59;100.00;97701.50;5036402;28;20207;-61
2022/07/12 05:18:18;;;;;;;1.97;1.90;;;;;;;14.54;100.00;97713.75;5045243;28;20281;-60
2022/07/12 05:20:46;;;;;;;3.17;2.10;;;;;;;14.57;100.00;97703.53;5004878;28;20199;-63
2022/07/12 05:23:19;;;;;;;2.70;2.10;;;;;;;14.32;100.00;97713.84;5044144;28;20203;-61
2022/07/12 05:25:49;;;;;;;1.70;1.70;;;;;;;14.36;100.00;97709.75;5041321;28;20752;-63
2022/07/12 05:28:17;;;;;;;2.07;1.97;;;;;;;14.56;100.00;97714.38;5041510;28;20333;-61
2022/07/12 05:30:45;;;;;;;1.93;1.83;;;;;;;14.85;100.00;97713.34;5005986;28;20306;-62
2022/07/12 05:33:14;;;;;;;2.60;2.20;;;;;;;15.16;100.00;97719.19;5044143;28;20966;-57
2022/07/12 05:35:42;;;;;;;2.60;2.50;;;;;;;15.32;100.00;97718.81;5014716;28;20237;-61
2022/07/12 05:38:10;;;;;;;2.23;2.13;;;;;;;15.48;100.00;97714.16;5029593;28;20223;-60
2022/07/12 05:40:39;;;;;;;1.83;1.73;;;;;;;15.67;100.00;97711.72;5040999;28;20238;-61
2022/07/12 05:43:08;;;;;;;1.70;1.70;;;;;;;15.83;100.00;97719.34;5044846;28;20195;-64
2022/07/12 05:45:37;;;;;;;1.97;1.93;;;;;;;15.86;100.00;97710.06;5007658;28;20211;-62
2022/07/12 05:48:06;;;;;;;4.10;3.80;;;;;;;15.94;100.00;97711.75;5000589;28;20231;-63
2022/07/12 05:50:34;;;;;;;2.17;2.07;;;;;;;16.09;100.00;97723.06;5040999;28;20780;-58
2022/07/12 05:55:48;;;;;;;1.83;1.73;;;;;;;16.41;100.00;97731.25;5037604;28;20206;-63
2022/07/12 05:58:17;;;;;;;1.73;1.60;;;;;;;16.37;100.00;97724.69;5035692;28;20227;-60
2022/07/12 06:00:47;;;;;;;2.20;1.53;;;;;;;16.61;100.00;97727.75;5025347;28;21087;-58
2022/07/12 06:03:16;;;;;;;1.93;1.77;;;;;;;16.61;100.00;97735.75;5005324;28;20231;-63
2022/07/12 06:05:44;;;;;;;2.20;2.00;;;;;;;16.51;100.00;97730.84;5039662;28;20207;-61
2022/07/12 06:08:12;;;;;;;1.53;1.53;;;;;;;16.78;100.00;97742.28;5048946;28;20231;-63
2022/07/12 06:10:41;;;;;;;1.83;1.73;;;;;;;16.85;100.00;97734.25;5036248;28;20723;-60
2022/07/12 06:13:10;;;;;;;2.20;1.60;;;;;;;17.06;100.00;97738.53;5044670;28;20222;-63
2022/07/12 06:15:40;;;;;;;2.10;1.93;;;;;;;17.24;100.00;97728.16;5033906;28;20668;-63
2022/07/12 06:18:08;;;;;;;2.93;2.60;;;;;;;17.58;100.00;97740.31;5002629;28;20235;-61
2022/07/12 06:20:36;;;;;;;2.07;1.97;;;;;;;17.68;100.00;97737.16;5036490;28;20299;-64
2022/07/12 06:23:04;;;;;;;2.87;1.97;;;;;;;18.18;100.00;97731.06;5047136;28;20925;-59
2022/07/12 06:25:33;;;;;;;1.87;1.77;;;;;;;18.00;100.00;97718.38;5042049;28;20257;-62
2022/07/12 06:28:10;;;;;;;4.13;3.47;;;;;;;18.34;100.00;97731.53;5042495;28;20231;-61
2022/07/12 06:30:40;;;;;;;1.73;1.70;;;;;;;18.62;100.00;97732.91;5035523;28;20219;-62
2022/07/12 06:33:09;;;;;;;1.60;1.53;;;;;;;18.61;100.00;97742.84;5037927;28;20235;-62
2022/07/12 06:35:37;;;;;;;3.43;2.43;;;;;;;18.39;100.00;97737.06;4998946;28;20731;-60
2022/07/12 06:38:05;;;;;;;1.53;1.50;;;;;;;18.46;100.00;97737.00;5037685;28;20325;-61
2022/07/12 06:40:34;;;;;;;1.70;1.60;;;;;;;18.68;100.00;97734.69;5043082;28;20204;-62
2022/07/12 06:43:02;;;;;;;2.20;1.90;;;;;;;18.92;100.00;97735.66;5040638;28;20323;-61
2022/07/12 06:45:30;;;;;;;2.70;1.67;;;;;;;18.79;100.00;97739.34;5041327;28;20230;-63
2022/07/12 06:48:00;;;;;;;2.63;1.87;;;;;;;18.49;100.00;97734.69;5035372;28;21094;-62
2022/07/12 06:50:28;;;;;;;1.90;1.80;;;;;;;18.60;100.00;97721.59;4999658;28;20289;-60
2022/07/12 06:52:56;;;;;;;1.40;1.40;;;;;;;18.70;100.00;97743.34;5034107;28;20901;-62
2022/07/12 06:55:26;;;;;;;1.97;1.30;;;;;;;18.80;100.00;97738.31;5042521;28;20773;-59
2022/07/12 06:57:54;;;;;;;2.17;1.50;;;;;;;18.87;100.00;97738.22;5040452;28;20806;-56
2022/07/12 07:00:22;;;;;;;1.47;1.37;;;;;;;18.86;100.00;97739.25;5043144;28;20208;-63
2022/07/12 07:02:50;;;;;;;1.80;1.70;;;;;;;18.91;100.00;97742.09;5024205;28;20368;-62
2022/07/12 07:05:21;;;;;;;2.70;1.53;;;;;;;18.85;100.00;97740.28;5043890;28;20289;-62
2022/07/12 07:07:49;;;;;;;1.53;1.43;;;;;;;18.77;100.00;97738.75;4992663;28;20450;-62
2022/07/12 07:10:17;;;;;;;1.93;1.83;;;;;;;18.93;100.00;97739.19;5039807;28;20231;-61
2022/07/12 07:12:46;;;;;;;2.83;1.50;;;;;;;19.20;100.00;97739.72;5038864;28;20203;-63
2022/07/12 07:15:15;;;;;;;1.87;1.80;;;;;;;18.95;100.00;97742.47;5045781;28;20569;-57
2022/07/12 07:17:43;;;;;;;2.67;1.33;;;;;;;18.97;100.00;97735.00;5024874;28;20261;-62
2022/07/12 07:20:12;;;;;;;3.70;1.50;;;;;;;19.08;100.00;97745.00;5042524;28;20203;-65
2022/07/12 07:22:42;;;;;;;1.57;1.57;;;;;;;18.92;100.00;97743.72;4994376;28;20215;-60
2022/07/12 07:25:11;;;;;;;1.37;1.30;;;;;;;18.90;100.00;97753.88;5037499;28;20209;-62
2022/07/12 07:27:39;;;;;;;2.67;1.67;;;;;;;18.65;100.00;97746.72;5042494;28;20713;-64
2022/07/12 07:32:54;;;;;;;3.27;2.00;;;;;;;18.16;100.00;97761.81;5019367;28;24223;-62
2022/07/12 07:35:23;;;;;;;1.53;1.53;;;;;;;18.14;100.00;97759.34;5038584;28;20203;-64
2022/07/12 07:37:53;;;;;;;2.37;2.27;;;;;;;18.69;100.00;97765.06;4994219;28;20448;-65
2022/07/12 07:40:21;;;;;;;3.63;2.13;;;;;;;18.96;100.00;97765.59;5037927;28;20203;-62
2022/07/12 07:42:50;;;;;;;2.07;1.60;;;;;;;19.35;100.00;97768.88;5041190;28;20491;-62
2022/07/12 07:45:19;;;;;;;2.23;1.53;;;;;;;19.64;100.00;97760.22;5039969;28;20203;-62
2022/07/12 07:47:48;;;;;;;1.43;1.43;;;;;;;19.83;100.00;97768.22;5019286;28;20232;-63
2022/07/12 07:50:36;;;;;;;1.30;1.30;;;;;;;19.97;100.00;97763.50;5039663;28;20207;-63
2022/07/12 07:53:06;;;;;;;1.77;1.60;;;;;;;19.95;94.79;97759.19;4998233;28;22837;-61
2022/07/12 07:55:34;;;;;;;1.70;1.60;;;;;;;20.13;95.01;97760.13;4991695;28;20705;-62
2022/07/12 07:58:02;;;;;;;1.70;1.60;;;;;;;20.24;85.50;97762.00;5041147;28;20219;-61
2022/07/12 08:00:31;;;;;;;1.13;1.13;;;;;;;20.52;86.71;97754.31;5036205;28;20212;-62
2022/07/12 08:02:59;;;;;;;3.93;1.47;;;;;;;20.35;90.26;97757.69;5034326;28;20211;-63
2022/07/12 08:05:28;;;;;;;1.73;1.73;;;;;;;20.30;93.96;97754.09;5030697;28;20776;-62
2022/07/12 08:07:56;;;;;;;1.40;1.40;;;;;;;20.35;93.04;97756.88;5041048;28;20231;-62
2022/07/12 08:10:27;;;;;;;1.80;1.80;;;;;;;20.50;81.78;97759.91;4994085;28;20215;-61
2022/07/12 08:12:55;;;;;;;1.30;1.20;;;;;;;20.78;70.55;97753.00;5036385;28;20336;-61
2022/07/12 08:15:23;;;;;;;1.70;1.60;;;;;;;20.53;72.28;97745.19;5043792;28;20394;-60
2022/07/12 08:17:52;;;;;;;1.47;1.30;;;;;;;20.78;75.52;97757.56;5041826;28;20204;-61
2022/07/12 08:20:22;;;;;;;2.17;1.97;;;;;;;20.82;79.44;97761.44;5020951;28;20214;-60
2022/07/12 08:23:11;;;;;;;1.60;1.50;;;;;;;21.00;70.94;97747.00;5041286;28;20440;-64
2022/07/12 08:25:41;;;;;;;1.53;1.53;;;;;;;20.95;78.73;97765.75;4998653;28;20214;-60
2022/07/12 08:28:09;;;;;;;1.97;1.87;;;;;;;20.86;64.57;97754.56;5033284;28;20523;-61
2022/07/12 08:30:37;;;;;;;1.30;1.20;;;;;;;20.67;61.19;97757.34;5040767;28;20207;-62
2022/07/12 08:33:13;;;;;;;1.60;1.60;;;;;;;20.84;61.95;97756.66;5034911;28;20496;-61
2022/07/12 08:35:42;;;;;;;2.00;1.90;;;;;;;21.45;58.23;97760.84;5024471;28;20207;-62
2022/07/12 08:38:11;;;;;;;1.47;1.37;;;;;;;20.86;55.42;97762.63;5037536;28;20381;-59
2022/07/12 08:40:41;;;;;;;4.47;1.93;;;;;;;21.43;55.30;97762.97;5036223;28;20245;-61
2022/07/12 08:43:09;;;;;;;1.73;1.37;;;;;;;22.01;51.21;97752.97;4992179;28;20227;-62
2022/07/12 08:45:37;;;;;;;1.13;1.03;;;;;;;22.37;45.29;97750.84;5040542;28;20208;-61
2022/07/12 08:48:06;;;;;;;1.73;1.53;;;;;;;22.15;49.72;97749.94;5034317;28;20236;-59
2022/07/12 08:50:35;;;;;;;1.57;1.57;;;;;;;22.54;47.94;97750.00;5038466;28;20211;-61
2022/07/12 08:53:13;;;;;;;0.97;0.97;;;;;;;22.96;44.41;97746.00;5020390;28;20230;-60
2022/07/12 08:55:43;;;;;;;1.77;1.67;;;;;;;23.42;44.66;97741.16;5042980;28;20204;-60
2022/07/12 08:58:18;;;;;;;0.67;0.67;;;;;;;23.63;42.08;97743.25;4991363;28;20668;-61
2022/07/12 09:00:47;;;;;;;1.07;1.03;;;;;;;23.68;42.83;97738.72;5044189;28;21277;-62
2022/07/12 09:03:18;;;;;;;1.20;1.20;;;;;;;23.31;45.60;97741.28;5036692;28;20456;-62
2022/07/12 09:05:52;;;;;;;1.23;1.23;;;;;;;23.73;42.50;97737.13;5043670;28;20204;-62
2022/07/12 09:08:26;;;;;;;1.30;1.20;;;;;;;23.34;45.13;97740.78;5026286;28;20343;-63
2022/07/12 09:11:01;;;;;;;1.50;1.40;;;;;;;22.57;48.71;97743.31;5044044;28;20669;-62
2022/07/12 09:13:52;;;;;;;1.77;1.70;;;;;;;22.74;50.00;97735.97;5000771;28;20639;-63
2022/07/12 09:16:22;;;;;;;1.10;1.10;;;;;;;22.99;52.61;97750.91;5037005;28;20823;-62
2022/07/12 09:18:51;;;;;;;1.40;1.30;;;;;;;21.95;53.51;97757.44;5038263;28;20460;-62
2022/07/12 09:21:23;;;;;;;1.50;1.40;;;;;;;21.83;54.58;97754.81;5041599;28;20373;-62
2022/07/12 09:23:53;;;;;;;1.10;1.10;;;;;;;21.69;54.25;97751.59;5024635;28;20310;-64
2022/07/12 09:26:23;;;;;;;1.13;1.13;;;;;;;21.65;53.95;97761.22;5038044;28;20495;-62
2022/07/12 09:28:52;;;;;;;1.20;1.20;;;;;;;22.44;49.90;97756.03;4996286;28;20914;-58
2022/07/12 09:31:21;;;;;;;1.40;0.83;;;;;;;22.40;46.64;97741.41;5039143;28;20208;-60
2022/07/12 09:36:57;;;;;;;1.00;1.00;;;;;;;21.77;50.94;97754.97;5043522;28;20207;-61
2022/07/12 09:39:26;;;;;;;1.03;1.03;;;;;;;21.23;53.77;97766.88;5025041;28;20463;-63
2022/07/12 09:41:57;;;;;;;1.43;1.33;;;;;;;20.98;56.16;97754.50;5041605;28;20308;-62
2022/07/12 09:44:25;;;;;;;1.40;1.00;;;;;;;21.14;55.49;97757.53;5000221;28;20597;-61
2022/07/12 09:46:55;;;;;;;3.37;1.50;;;;;;;21.40;52.58;97759.69;5042267;28;20227;-59
2022/07/12 09:49:23;;;;;;;1.00;1.00;;;;;;;21.86;51.77;97761.63;5036810;28;20239;-61
2022/07/12 09:51:54;;;;;;;1.10;1.10;;;;;;;21.77;48.96;97760.34;5040831;28;20223;-60
2022/07/12 09:54:26;;;;;;;2.00;0.90;;;;;;;22.17;47.74;97753.19;5042334;28;20200;-62
2022/07/12 09:57:01;;;;;;;1.70;1.40;;;;;;;22.46;49.99;97753.16;5030518;28;20206;-61
2022/07/12 09:59:30;;;;;;;1.17;1.17;;;;;;;22.88;51.25;97754.50;5046301;28;20227;-62
2022/07/12 10:02:03;;;;;;;1.60;1.50;;;;;;;22.64;49.53;97752.84;4951117;28;20243;-61
2022/07/12 10:04:32;;;;;;;2.87;1.53;;;;;;;22.85;47.55;97750.44;5037173;28;20489;-62
2022/07/12 10:07:01;;;;;;;2.33;2.23;;;;;;;22.89;48.92;97753.44;5028534;28;20302;-62
2022/07/12 10:09:29;;;;;;;1.47;1.47;;;;;;;23.18;52.72;97748.69;5037744;28;20226;-62
2022/07/12 10:11:57;;;;;;;1.57;1.47;;;;;;;23.33;49.54;97749.97;5025718;28;20235;-62
2022/07/12 10:14:30;;;;;;;1.80;1.70;;;;;;;23.65;49.34;97743.81;5044910;28;20203;-63
2022/07/12 10:16:59;;;;;;;1.20;0.97;;;;;;;23.68;44.26;97743.28;5003819;28;20281;-59
2022/07/12 10:19:29;;;;;;;0.93;0.93;;;;;;;23.76;44.12;97731.22;5035914;28;20241;-62
2022/07/12 10:21:59;;;;;;;1.30;1.20;;;;;;;23.45;44.89;97741.72;5044700;28;20265;-62
2022/07/12 10:24:47;;;;;;;1.30;1.30;;;;;;;23.35;42.64;97750.53;5035988;28;20203;-62
2022/07/12 10:27:31;;;;;;;1.20;1.10;;;;;;;23.12;43.31;97745.09;5024035;28;20214;-61
2022/07/12 10:30:23;;;;;;;1.10;1.10;;;;;;;22.77;45.05;97746.28;5042341;28;20706;-58
2022/07/12 10:32:56;;;;;;;3.57;2.00;;;;;;;22.56;47.42;97742.47;4998879;28;22073;-62
2022/07/12 10:35:26;;;;;;;1.40;1.30;;;;;;;22.25;47.98;97755.47;5037962;28;20828;-62
2022/07/12 10:38:16;;;;;;;1.80;1.70;;;;;;;22.19;48.80;97745.69;5041128;28;20211;-61
2022/07/12 10:40:46;;;;;;;1.10;1.10;;;;;;;22.27;48.29;97743.41;5040102;28;20297;-62
2022/07/12 10:43:19;;;;;;;1.10;1.10;;;;;;;22.66;48.57;97729.13;5024568;28;20211;-62
2022/07/12 10:45:49;;;;;;;1.10;1.10;;;;;;;22.76;47.97;97741.94;5042466;28;20272;-63
2022/07/12 10:48:23;;;;;;;1.40;1.40;;;;;;;23.01;47.20;97718.19;5026599;28;20297;-63
2022/07/12 10:51:02;;;;;;;1.37;1.20;;;;;;;23.40;45.54;97727.06;5033619;28;20261;-58
2022/07/12 10:53:33;;;;;;;3.00;1.30;;;;;;;23.63;43.66;97729.72;5036925;28;20226;-62
2022/07/12 10:56:15;;;;;;;1.20;1.20;;;;;;;23.98;44.52;97721.09;5042180;28;20230;-63
2022/07/12 10:58:46;;;;;;;0.80;0.80;;;;;;;24.42;41.86;97730.94;5026093;28;20428;-60
2022/07/12 11:01:17;;;;;;;1.10;1.10;;;;;;;24.75;39.91;97724.66;5039776;28;20201;-61
2022/07/12 11:03:47;;;;;;;1.33;1.23;;;;;;;25.25;39.02;97731.34;5041904;28;20328;-63
2022/07/12 11:06:16;;;;;;;1.30;1.20;;;;;;;25.36;38.67;97725.94;4997850;28;20239;-60
2022/07/12 11:08:52;;;;;;;0.97;0.97;;;;;;;25.04;39.61;97721.53;5036143;28;20285;-63
2022/07/12 11:11:21;;;;;;;1.53;1.53;;;;;;;24.60;39.14;97717.22;5037581;28;20320;-57
2022/07/12 11:13:50;;;;;;;1.27;1.27;;;;;;;24.30;40.75;97737.63;5034076;28;20922;-57
2022/07/12 11:16:20;;;;;;;0.97;0.97;;;;;;;24.01;41.97;97735.22;5035589;28;20262;-61
2022/07/12 11:18:49;;;;;;;3.33;1.20;;;;;;;23.82;41.65;97724.75;5045209;28;20218;-62
2022/07/12 11:21:17;;;;;;;0.70;0.70;;;;;;;23.95;41.54;97715.41;5001365;28;20207;-62
2022/07/12 11:23:45;;;;;;;0.80;0.80;;;;;;;23.87;41.69;97719.41;5036447;28;20763;-62
2022/07/12 11:26:15;;;;;;;0.90;0.90;;;;;;;23.94;40.82;97716.47;5043324;28;20211;-60
2022/07/12 11:28:44;;;;;;;0.83;0.83;;;;;;;24.21;42.75;97718.31;5025195;28;20241;-62
2022/07/12 11:31:13;;;;;;;0.80;0.80;;;;;;;24.62;40.34;97715.06;5043967;28;20218;-62
2022/07/12 11:33:45;;;;;;;1.40;0.77;;;;;;;24.75;38.08;97708.41;5038285;28;20630;-61
2022/07/12 11:36:14;;;;;;;1.00;1.00;;;;;;;24.50;38.48;97707.97;5039589;28;20476;-63
2022/07/12 11:38:44;;;;;;;1.10;1.00;;;;;;;23.84;39.96;97706.38;5002304;28;20333;-62
2022/07/12 11:41:15;;;;;;;0.73;0.73;;;;;;;24.03;40.27;97709.53;5042686;28;20198;-62
2022/07/12 11:43:43;;;;;;;0.80;0.80;;;;;;;24.30;40.89;97702.41;5023322;28;20880;-62
2022/07/12 11:46:13;;;;;;;1.00;1.00;;;;;;;24.46;39.92;97704.16;5042004;28;20203;-63
2022/07/12 11:48:43;;;;;;;0.93;0.93;;;;;;;24.84;38.95;97704.94;5034525;28;20326;-63